Etusivu
METAR-TAF:

METAR-TAF

Lentoasemat :

Pruniers

Romorantin, Ranska

Leveyspiiri: 47-19N, Pituuspiiri: 001-41E, korkeus merenpinnasta: 85 m

Tämänhetkinen sää

Tämä raportti tehtiin 29 minuuttia sitten, kello 21.30 UTC
tyyntä
Lämpötila 17°C
Kosteus 94%
Ilmanpaine 1018 hPa
Näkyvyys: 1000 m
utua

METAR: LFYR 222130Z AUTO 00000KT 1000 BR NSC 17/16 Q1018

Aika: 23:59 (21:59 UTC)


TAF: puuttuu

Säähavainnot ja -ennusteet yli 4000 lentoasemalta (METAR- ja TAF-raportit).

Käytössä olevat sääasemat on merkitty karttaan keltaisilla ja punaisilla pisteillä.

Aseta hiiri pisteen päälle nähdäksesi sääaseman nimen.

Klikkaa sitten nähdäksesi säähavainnot ja -ennusteet.

Kartan vaihtaminen: klikkaa mustalla rastilla varustettuja vihreitä pisteitä, niin voit zoomata sisään; viivalla varustettua vihreää pistettä, niin voit zoomata ulos tai vihreitä nuolia, niin pääset viereisille kartoille.


METAR-TAF: